createdAt,value
2018-07-09T04:00:54.619Z,3.70
2018-07-09T04:01:54.439Z,10.60
2018-07-09T04:03:47.137Z,10.20
2018-07-09T04:04:47.017Z,11.20
2018-07-09T04:06:39.685Z,9.90
2018-07-09T04:07:39.579Z,10.30
2018-07-09T04:09:32.283Z,9.80
2018-07-09T04:10:32.149Z,11.60
2018-07-09T04:12:24.833Z,9.30
2018-07-09T04:13:24.726Z,10.20
2018-07-09T04:15:17.430Z,10.00
2018-07-09T04:16:17.301Z,10.10
2018-07-09T04:18:09.980Z,10.70
2018-07-09T04:19:09.880Z,11.80
2018-07-09T04:21:02.675Z,10.50
2018-07-09T04:22:02.455Z,10.30
2018-07-09T04:23:55.128Z,9.80
2018-07-09T04:24:55.025Z,10.20
2018-07-09T04:26:47.715Z,10.30
2018-07-09T04:27:47.593Z,11.40
2018-07-09T04:29:40.268Z,12.10
2018-07-09T04:30:40.162Z,11.30
2018-07-09T04:32:32.860Z,11.60
2018-07-09T04:33:32.731Z,11.80
2018-07-09T04:35:25.419Z,11.80
2018-07-09T04:36:25.314Z,12.00
2018-07-09T04:38:18.013Z,12.00
2018-07-09T04:39:17.887Z,12.20
2018-07-09T04:41:10.567Z,12.10
2018-07-09T04:42:10.465Z,12.30
2018-07-09T04:44:03.162Z,13.90
2018-07-09T04:45:03.039Z,12.90
2018-07-09T04:46:55.718Z,12.40
2018-07-09T04:47:55.610Z,12.20
2018-07-09T04:49:48.304Z,14.50
2018-07-09T04:50:48.180Z,13.00
2018-07-09T04:52:40.863Z,13.60
2018-07-09T04:53:40.765Z,13.00
2018-07-09T04:55:33.451Z,13.60
2018-07-09T04:56:33.335Z,13.50
2018-07-09T04:58:26.010Z,15.40
2018-07-09T04:59:25.904Z,13.90
2018-07-09T05:01:18.596Z,14.00
2018-07-09T05:02:18.479Z,13.40
2018-07-09T05:04:11.152Z,13.10
2018-07-09T05:05:11.051Z,13.80
2018-07-09T05:07:03.741Z,13.20
2018-07-09T05:08:03.621Z,13.60
2018-07-09T05:09:56.299Z,13.50
2018-07-09T05:10:56.188Z,13.30
2018-07-09T05:12:48.893Z,15.10
2018-07-09T05:13:48.766Z,13.40
2018-07-09T05:15:41.447Z,14.40
2018-07-09T05:16:41.344Z,14.80
2018-07-09T05:18:34.040Z,15.20
2018-07-09T05:19:33.913Z,14.20
2018-07-09T05:21:26.591Z,13.60
2018-07-09T05:22:26.494Z,13.20
2018-07-09T05:24:19.189Z,12.90
2018-07-09T05:25:19.065Z,13.80
2018-07-09T05:27:11.754Z,12.80
2018-07-09T05:28:11.642Z,12.90
2018-07-09T05:30:04.338Z,13.30
2018-07-09T05:31:04.218Z,12.40
2018-07-09T05:32:56.892Z,14.90
2018-07-09T05:33:56.792Z,13.40
2018-07-09T05:35:49.490Z,13.90
2018-07-09T05:36:49.373Z,14.00
2018-07-09T05:38:42.051Z,14.50
2018-07-09T05:39:41.942Z,13.60
2018-07-09T05:41:34.640Z,13.80
2018-07-09T05:42:34.521Z,16.70
2018-07-09T05:44:27.202Z,12.60
2018-07-09T05:45:27.100Z,14.10
2018-07-09T05:47:19.803Z,14.00
2018-07-09T05:48:19.686Z,12.90
2018-07-09T05:50:12.361Z,14.30
2018-07-09T05:51:12.258Z,13.30
2018-07-09T05:53:04.953Z,12.70
2018-07-09T05:54:04.836Z,12.80
2018-07-09T05:55:57.516Z,14.10
2018-07-09T05:56:57.417Z,13.10
2018-07-09T05:58:50.142Z,12.00
2018-07-09T05:59:49.993Z,10.90
2018-07-09T06:01:42.678Z,11.10
2018-07-09T06:02:42.575Z,11.30
2018-07-09T06:04:35.276Z,11.00
2018-07-09T06:05:35.206Z,11.10
2018-07-09T06:07:27.839Z,11.10
2018-07-09T06:08:27.730Z,11.80
2018-07-09T06:10:20.437Z,9.60
2018-07-09T06:11:20.350Z,11.10
2018-07-09T06:13:13.003Z,12.30
2018-07-09T06:14:12.898Z,9.10
2018-07-09T06:16:05.601Z,9.40
2018-07-09T06:17:05.489Z,9.30
2018-07-09T06:18:58.171Z,9.20
2018-07-09T06:19:58.074Z,9.80
2018-07-09T06:21:50.781Z,9.80
2018-07-09T06:22:50.660Z,12.30
2018-07-09T06:24:43.345Z,10.30
2018-07-09T06:25:43.247Z,11.10
2018-07-09T06:27:35.960Z,9.10
2018-07-09T06:28:35.836Z,15.50
2018-07-09T06:30:28.541Z,9.40
2018-07-09T06:31:28.496Z,9.20
2018-07-09T06:33:21.152Z,9.60
2018-07-09T06:34:21.033Z,13.50
2018-07-09T06:36:13.748Z,8.90
2018-07-09T06:37:13.631Z,10.60
2018-07-09T06:39:06.314Z,9.80
2018-07-09T06:40:06.215Z,8.90
2018-07-09T06:41:58.923Z,10.60
2018-07-09T06:42:58.848Z,8.70
2018-07-09T06:44:51.493Z,8.40
2018-07-09T06:45:51.394Z,9.70
2018-07-09T06:47:44.105Z,11.00
2018-07-09T06:48:43.983Z,9.80
2018-07-09T06:50:36.678Z,8.20
2018-07-09T06:51:36.585Z,8.80
2018-07-09T06:53:29.435Z,12.00
2018-07-09T06:54:29.163Z,10.50
2018-07-09T06:56:21.854Z,10.40
2018-07-09T06:57:21.759Z,9.60
2018-07-09T06:59:14.468Z,9.80
2018-07-09T07:00:14.350Z,9.40
2018-07-09T07:02:07.046Z,8.90
2018-07-09T07:03:06.944Z,9.10
2018-07-09T07:04:59.658Z,9.00
2018-07-09T07:05:59.536Z,11.70
2018-07-09T07:07:52.230Z,10.40
2018-07-09T07:08:52.182Z,9.80
2018-07-09T07:10:44.845Z,8.80
2018-07-09T07:11:44.729Z,8.90
2018-07-09T07:13:37.416Z,10.10
2018-07-09T07:14:37.321Z,10.00
2018-07-09T07:16:30.031Z,9.40
2018-07-09T07:17:29.917Z,10.70
2018-07-09T07:19:22.611Z,9.40
2018-07-09T07:20:22.510Z,8.80
2018-07-09T07:22:15.221Z,8.30
2018-07-09T07:23:15.105Z,12.40
2018-07-09T07:25:07.808Z,8.30
2018-07-09T07:26:07.717Z,9.10
2018-07-09T07:28:00.441Z,7.60
2018-07-09T07:29:00.330Z,9.00
2018-07-09T07:30:53.032Z,8.40
2018-07-09T07:31:52.935Z,8.00
2018-07-09T07:33:45.657Z,8.00
2018-07-09T07:34:45.551Z,8.20
2018-07-09T07:36:38.253Z,9.10
2018-07-09T07:37:38.156Z,8.20
2018-07-09T07:39:30.887Z,8.40
2018-07-09T07:40:30.770Z,8.60
2018-07-09T07:42:23.473Z,9.30
2018-07-09T07:43:23.396Z,8.00
2018-07-09T07:45:16.097Z,9.20
2018-07-09T07:46:15.983Z,8.40
2018-07-09T07:48:08.678Z,9.60
2018-07-09T07:49:08.590Z,8.90
2018-07-09T07:51:01.308Z,8.60
2018-07-09T07:52:01.188Z,8.20
2018-07-09T07:53:53.889Z,8.20
2018-07-09T07:54:53.788Z,8.20
2018-07-09T07:56:46.516Z,9.00
2018-07-09T07:57:46.389Z,9.80
2018-07-09T07:59:39.086Z,8.30
2018-07-09T08:00:38.996Z,8.70
2018-07-09T08:02:31.705Z,10.80
2018-07-09T08:03:31.597Z,8.30
2018-07-09T08:05:24.288Z,8.70
2018-07-09T08:06:24.194Z,8.40
2018-07-09T08:08:16.919Z,7.30
2018-07-09T08:09:16.837Z,7.90
2018-07-09T08:11:11.674Z,8.00
2018-07-09T08:13:00.561Z,6.90
2018-07-09T08:14:02.107Z,7.00
2018-07-09T08:15:02.226Z,6.70
2018-07-09T08:16:54.680Z,6.20
2018-07-09T08:17:54.587Z,7.90
2018-07-09T08:19:47.308Z,6.10
2018-07-09T08:20:47.190Z,5.90
2018-07-09T08:22:39.885Z,6.20
2018-07-09T08:23:39.785Z,6.10
2018-07-09T08:25:32.726Z,6.60
2018-07-09T08:26:32.395Z,5.50
2018-07-09T08:28:25.088Z,6.90
2018-07-09T08:29:24.995Z,8.30
2018-07-09T08:31:17.796Z,8.30
2018-07-09T08:32:17.605Z,7.10
2018-07-09T08:34:10.308Z,5.70
2018-07-09T08:35:10.215Z,6.30
2018-07-09T08:37:02.937Z,6.50
2018-07-09T08:38:02.885Z,6.90
2018-07-09T08:39:55.539Z,5.30
2018-07-09T08:40:55.442Z,7.30
2018-07-09T08:42:48.173Z,6.20
2018-07-09T08:43:48.068Z,5.00
2018-07-09T08:45:40.922Z,6.10
2018-07-09T08:46:40.685Z,7.20
2018-07-09T08:48:33.412Z,5.30
2018-07-09T08:49:33.308Z,5.60
2018-07-09T08:51:26.018Z,6.00
2018-07-09T08:52:25.923Z,5.70
2018-07-09T08:54:18.653Z,4.60
2018-07-09T08:55:18.561Z,5.80
2018-07-09T08:57:11.249Z,4.60
2018-07-09T08:58:11.159Z,6.70
2018-07-09T09:00:03.883Z,4.70
2018-07-09T09:01:03.770Z,5.60
2018-07-09T09:02:56.487Z,6.00
2018-07-09T09:03:56.384Z,5.40
2018-07-09T09:05:49.104Z,6.60
2018-07-09T09:06:48.993Z,5.00
2018-07-09T09:08:41.696Z,5.90
2018-07-09T09:09:41.601Z,4.90
2018-07-09T09:11:34.323Z,4.40
2018-07-09T09:12:34.213Z,5.10
2018-07-09T09:14:26.907Z,5.10
2018-07-09T09:15:26.833Z,4.40
2018-07-09T09:17:19.536Z,5.70
2018-07-09T09:18:19.421Z,4.80
2018-07-09T09:20:12.121Z,5.60
2018-07-09T09:21:12.029Z,4.80
2018-07-09T09:23:04.740Z,4.70
2018-07-09T09:24:04.630Z,4.40
2018-07-09T09:25:57.324Z,5.30
2018-07-09T09:26:57.233Z,4.90
2018-07-09T09:28:49.949Z,7.20
2018-07-09T09:29:49.832Z,5.60
2018-07-09T09:31:42.550Z,6.00
2018-07-09T09:32:42.429Z,7.80
2018-07-09T09:34:35.126Z,7.00
2018-07-09T09:35:35.035Z,5.60
2018-07-09T09:37:27.796Z,6.50
2018-07-09T09:38:27.632Z,6.30
2018-07-09T09:40:20.343Z,5.50
2018-07-09T09:41:20.228Z,6.80
2018-07-09T09:43:13.038Z,4.50
2018-07-09T09:44:12.843Z,4.70
2018-07-09T09:46:05.609Z,4.10
2018-07-09T09:47:05.513Z,5.00
2018-07-09T09:48:58.226Z,7.00
2018-07-09T09:49:58.109Z,4.90
2018-07-09T09:51:50.812Z,6.50
2018-07-09T09:52:50.710Z,5.20
2018-07-09T09:54:43.452Z,6.00
2018-07-09T09:55:43.324Z,4.10
2018-07-09T09:57:36.009Z,5.00
2018-07-09T09:58:35.918Z,4.60
2018-07-09T10:00:28.653Z,4.80
2018-07-09T10:01:28.515Z,5.70
2018-07-09T10:03:21.213Z,4.80
2018-07-09T10:04:21.106Z,4.60
2018-07-09T10:06:13.836Z,8.80
2018-07-09T10:07:13.705Z,5.50
2018-07-09T10:09:06.404Z,5.10
2018-07-09T10:10:06.304Z,5.40
2018-07-09T10:11:59.020Z,5.00
2018-07-09T10:12:58.902Z,4.80
2018-07-09T10:14:51.594Z,6.90
2018-07-09T10:15:51.500Z,4.20
2018-07-09T10:17:44.215Z,7.30
2018-07-09T10:18:44.099Z,6.00
2018-07-09T10:20:36.799Z,5.50
2018-07-09T10:21:36.702Z,6.30
2018-07-09T10:23:29.424Z,6.60
2018-07-09T10:24:29.302Z,5.20
2018-07-09T10:26:21.998Z,4.10
2018-07-09T10:27:21.905Z,5.50
2018-07-09T10:29:14.619Z,5.10
2018-07-09T10:30:14.506Z,4.10
2018-07-09T10:32:07.209Z,8.50
2018-07-09T10:33:07.113Z,4.10
2018-07-09T10:34:59.828Z,4.60
2018-07-09T10:35:59.717Z,7.00
2018-07-09T10:37:52.410Z,5.30
2018-07-09T10:38:52.310Z,5.00
2018-07-09T10:40:45.029Z,6.20
2018-07-09T10:41:44.912Z,3.50
2018-07-09T10:43:37.626Z,10.40
2018-07-09T10:44:37.506Z,6.90
2018-07-09T10:46:30.204Z,5.30
2018-07-09T10:47:30.105Z,5.80
2018-07-09T10:49:22.824Z,4.60
2018-07-09T10:50:22.704Z,4.10
2018-07-09T10:52:15.402Z,4.80
2018-07-09T10:53:15.308Z,5.20
2018-07-09T10:55:08.072Z,4.70
2018-07-09T10:56:07.902Z,5.40
2018-07-09T10:58:00.593Z,6.00
2018-07-09T10:59:00.499Z,4.60
2018-07-09T11:00:53.263Z,6.20
2018-07-09T11:01:53.096Z,6.80
2018-07-09T11:03:45.803Z,4.20
2018-07-09T11:04:45.691Z,7.20
2018-07-09T11:06:38.387Z,6.00
2018-07-09T11:07:38.289Z,4.10
2018-07-09T11:09:30.998Z,4.90
2018-07-09T11:10:30.879Z,4.30
2018-07-09T11:12:23.579Z,5.00
2018-07-09T11:13:23.479Z,4.70
2018-07-09T11:15:16.192Z,4.30
2018-07-09T11:16:16.172Z,6.20
2018-07-09T11:18:08.765Z,4.60
2018-07-09T11:19:08.669Z,6.60
2018-07-09T11:21:01.377Z,6.20
2018-07-09T11:22:01.256Z,4.80
2018-07-09T11:23:53.961Z,5.10
2018-07-09T11:24:53.849Z,4.40
2018-07-09T11:26:46.544Z,5.00
2018-07-09T11:27:46.447Z,5.50
2018-07-09T11:29:39.152Z,4.80
2018-07-09T11:30:39.032Z,5.10
2018-07-09T11:32:31.723Z,5.10
2018-07-09T11:33:31.630Z,5.20
2018-07-09T11:35:24.429Z,4.60
2018-07-09T11:36:24.281Z,5.10
2018-07-09T11:38:16.927Z,5.00
2018-07-09T11:39:16.826Z,5.90
2018-07-09T11:41:09.505Z,6.60
2018-07-09T11:42:09.432Z,9.70
2018-07-09T11:44:02.124Z,5.60
2018-07-09T11:45:02.008Z,6.10
2018-07-09T11:46:54.698Z,5.60
2018-07-09T11:47:54.594Z,8.40
2018-07-09T11:49:47.312Z,5.40
2018-07-09T11:50:47.192Z,6.70
2018-07-09T11:52:39.879Z,5.40
2018-07-09T11:53:39.787Z,6.20
2018-07-09T11:55:32.503Z,5.20
2018-07-09T11:56:32.389Z,5.10
2018-07-09T11:58:25.113Z,5.50
2018-07-09T11:59:24.986Z,5.30
2018-07-09T12:01:17.677Z,14.40
2018-07-09T12:02:17.585Z,6.30
2018-07-09T12:04:10.314Z,5.30
2018-07-09T12:05:10.188Z,5.30
2018-07-09T12:07:02.886Z,4.90
2018-07-09T12:08:02.788Z,5.20
2018-07-09T12:09:55.503Z,6.80
2018-07-09T12:10:55.379Z,5.50
2018-07-09T12:12:48.076Z,3.40
2018-07-09T12:13:47.978Z,3.90
2018-07-09T12:15:40.693Z,3.40
2018-07-09T12:16:40.578Z,4.10
2018-07-09T12:18:33.272Z,4.40
2018-07-09T12:19:33.176Z,3.70
2018-07-09T12:21:25.892Z,4.00
2018-07-09T12:22:25.779Z,3.60
2018-07-09T12:24:18.479Z,4.00
2018-07-09T12:25:18.375Z,3.40
2018-07-09T12:27:11.093Z,2.80
2018-07-09T12:28:10.975Z,2.90
2018-07-09T12:30:03.671Z,3.10
2018-07-09T12:31:03.573Z,3.70
2018-07-09T12:32:56.282Z,3.50
2018-07-09T12:33:56.166Z,3.90
2018-07-09T12:35:48.860Z,4.80
2018-07-09T12:36:48.759Z,4.20
2018-07-09T12:38:41.483Z,3.30
2018-07-09T12:39:41.365Z,4.60
2018-07-09T12:41:34.056Z,2.90
2018-07-09T12:42:33.965Z,3.60
2018-07-09T12:44:26.684Z,4.60
2018-07-09T12:45:26.565Z,4.20
2018-07-09T12:47:19.260Z,5.60
2018-07-09T12:48:19.164Z,4.70
2018-07-09T12:50:11.888Z,3.30
2018-07-09T12:51:11.774Z,4.70
2018-07-09T12:53:04.471Z,3.30
2018-07-09T12:54:04.370Z,4.50
2018-07-09T12:55:57.088Z,3.50
2018-07-09T12:56:56.976Z,3.50
2018-07-09T12:58:49.674Z,4.00
2018-07-09T12:59:49.576Z,2.80
2018-07-09T13:01:42.336Z,3.70
2018-07-09T13:02:42.187Z,4.20
2018-07-09T13:04:34.886Z,3.80
2018-07-09T13:05:34.793Z,3.40
2018-07-09T13:07:27.501Z,3.30
2018-07-09T13:08:27.399Z,2.90
2018-07-09T13:10:20.090Z,3.50
2018-07-09T13:11:19.992Z,2.80
2018-07-09T13:13:12.707Z,4.40
2018-07-09T13:14:12.590Z,4.30
2018-07-09T13:16:05.287Z,3.00
2018-07-09T13:17:05.196Z,3.50
2018-07-09T13:18:57.912Z,2.90
2018-07-09T13:19:57.859Z,4.20
2018-07-09T13:21:50.485Z,3.30
2018-07-09T13:22:50.394Z,3.20
2018-07-09T13:24:43.103Z,4.90
2018-07-09T13:25:42.993Z,4.00
2018-07-09T13:27:35.680Z,3.00
2018-07-09T13:28:35.581Z,2.40
2018-07-09T13:30:28.295Z,2.80
2018-07-09T13:31:28.182Z,4.00
2018-07-09T13:33:20.884Z,3.00
2018-07-09T13:34:20.795Z,6.00
2018-07-09T13:36:13.493Z,3.20
2018-07-09T13:37:13.381Z,3.10
2018-07-09T13:39:06.080Z,3.70
2018-07-09T13:40:05.980Z,2.60
2018-07-09T13:41:58.693Z,3.00
2018-07-09T13:42:58.577Z,3.50
2018-07-09T13:44:51.269Z,2.60
2018-07-09T13:45:51.168Z,2.60
2018-07-09T13:47:43.877Z,2.70
2018-07-09T13:48:43.766Z,3.80
2018-07-09T13:50:36.463Z,3.30
2018-07-09T13:51:36.367Z,2.70
2018-07-09T13:53:29.087Z,2.90
2018-07-09T13:54:28.971Z,3.80
2018-07-09T13:56:21.659Z,3.90
2018-07-09T13:57:21.558Z,3.90
2018-07-09T13:59:14.296Z,3.20
2018-07-09T14:00:14.180Z,2.70
2018-07-09T14:02:06.871Z,2.70
2018-07-09T14:03:06.777Z,2.50
2018-07-09T14:04:59.503Z,3.70
2018-07-09T14:05:59.377Z,3.00
2018-07-09T14:07:52.065Z,3.50
2018-07-09T14:08:51.974Z,3.60
2018-07-09T14:10:44.693Z,3.00
2018-07-09T14:11:44.567Z,2.70
2018-07-09T14:13:37.260Z,2.70
2018-07-09T14:14:37.164Z,3.30
2018-07-09T14:16:29.887Z,3.40
2018-07-09T14:17:29.755Z,2.60
2018-07-09T14:19:22.449Z,3.50
2018-07-09T14:20:22.359Z,3.00
2018-07-09T14:22:15.080Z,3.00
2018-07-09T14:23:14.942Z,2.90
2018-07-09T14:25:07.632Z,4.40
2018-07-09T14:26:07.536Z,2.90
2018-07-09T14:28:00.242Z,5.30
2018-07-09T14:29:00.128Z,3.00
2018-07-09T14:30:52.816Z,3.40
2018-07-09T14:31:52.721Z,3.10
2018-07-09T14:33:45.432Z,2.90
2018-07-09T14:34:45.311Z,4.60
2018-07-09T14:36:38.009Z,2.90
2018-07-09T14:37:37.910Z,3.00
2018-07-09T14:39:30.619Z,3.70
2018-07-09T14:40:30.508Z,3.90
2018-07-09T14:42:23.188Z,3.50
2018-07-09T14:43:23.090Z,3.70
2018-07-09T14:45:15.823Z,2.40
2018-07-09T14:46:15.682Z,2.60
2018-07-09T14:48:08.390Z,3.70
2018-07-09T14:49:08.280Z,5.20
2018-07-09T14:51:00.964Z,4.00
2018-07-09T14:52:00.869Z,3.10
2018-07-09T14:53:53.573Z,2.70
2018-07-09T14:54:53.461Z,4.00
2018-07-09T14:56:46.149Z,3.80
2018-07-09T14:57:46.053Z,6.70
2018-07-09T14:59:38.775Z,3.60
2018-07-09T15:00:38.649Z,4.10
2018-07-09T15:02:31.339Z,4.20
2018-07-09T15:03:31.243Z,4.10
2018-07-09T15:05:23.948Z,2.90
2018-07-09T15:06:23.836Z,3.40
2018-07-09T15:08:16.524Z,2.70
2018-07-09T15:09:16.428Z,2.70
2018-07-09T15:11:09.144Z,3.40
2018-07-09T15:12:09.022Z,3.10
2018-07-09T15:14:01.714Z,4.10
2018-07-09T15:15:01.613Z,2.80
2018-07-09T15:16:54.326Z,2.80
2018-07-09T15:17:54.210Z,2.80
2018-07-09T15:19:46.905Z,4.10
2018-07-09T15:20:46.804Z,4.20
2018-07-09T15:22:39.528Z,2.80
2018-07-09T15:23:39.415Z,3.20
2018-07-09T15:25:32.099Z,3.20
2018-07-09T15:26:32.009Z,4.70
2018-07-09T15:28:24.716Z,3.40
2018-07-09T15:29:24.603Z,6.50
2018-07-09T15:31:17.296Z,2.90
2018-07-09T15:32:17.197Z,3.50
2018-07-09T15:34:09.922Z,4.00
2018-07-09T15:35:09.799Z,3.50
2018-07-09T15:37:02.502Z,4.50
2018-07-09T15:38:02.403Z,3.00
2018-07-09T15:39:55.122Z,4.50
2018-07-09T15:40:55.004Z,2.90
2018-07-09T15:42:47.698Z,3.10
2018-07-09T15:43:47.600Z,2.40
2018-07-09T15:45:40.316Z,2.90
2018-07-09T15:46:40.199Z,4.60
2018-07-09T15:48:32.893Z,3.90
2018-07-09T15:49:32.791Z,2.60
2018-07-09T15:51:25.508Z,2.80
2018-07-09T15:52:25.390Z,4.40
2018-07-09T15:54:18.239Z,2.30
2018-07-09T15:55:17.986Z,3.70
2018-07-09T15:57:10.695Z,2.40
2018-07-09T15:58:10.577Z,3.20
2018-07-09T16:00:03.328Z,2.80
2018-07-09T16:01:03.181Z,2.60
2018-07-09T16:02:56.033Z,3.50
2018-07-09T16:03:55.774Z,2.60
2018-07-09T16:05:48.466Z,2.60
2018-07-09T16:06:48.366Z,3.10
2018-07-09T16:08:41.077Z,4.30
2018-07-09T16:09:40.961Z,5.00
2018-07-09T16:11:33.657Z,3.80
2018-07-09T16:12:33.562Z,4.90
2018-07-09T16:14:26.269Z,2.60
2018-07-09T16:15:26.153Z,3.00
2018-07-09T16:17:18.845Z,3.20
2018-07-09T16:18:18.754Z,5.50
2018-07-09T16:20:11.464Z,2.50
2018-07-09T16:21:11.353Z,3.40
2018-07-09T16:23:04.043Z,3.10
2018-07-09T16:24:03.947Z,2.60
2018-07-09T16:25:56.657Z,3.30
2018-07-09T16:26:56.543Z,3.20
2018-07-09T16:28:49.332Z,5.10
2018-07-09T16:29:49.137Z,2.70
2018-07-09T16:31:41.843Z,5.00
2018-07-09T16:32:41.727Z,3.60
2018-07-09T16:34:34.423Z,3.50
2018-07-09T16:35:34.326Z,3.50
2018-07-09T16:37:27.029Z,3.80
2018-07-09T16:38:26.921Z,5.00
2018-07-09T16:40:19.641Z,4.10
2018-07-09T16:41:19.518Z,5.60
2018-07-09T16:43:12.204Z,5.00
2018-07-09T16:44:12.110Z,3.20
2018-07-09T16:46:04.812Z,3.10
2018-07-09T16:47:04.810Z,5.40
2018-07-09T16:48:57.427Z,3.80
2018-07-09T16:49:57.298Z,3.10
2018-07-09T16:51:50.015Z,4.00
2018-07-09T16:52:49.891Z,3.20
2018-07-09T16:54:42.624Z,5.10
2018-07-09T16:55:42.481Z,3.50
2018-07-09T16:57:35.195Z,4.30
2018-07-09T16:58:35.066Z,4.10
2018-07-09T17:00:27.757Z,5.50
2018-07-09T17:01:27.665Z,4.10
2018-07-09T17:03:20.443Z,3.60
2018-07-09T17:04:20.268Z,3.60
2018-07-09T17:06:12.943Z,4.50
2018-07-09T17:07:12.843Z,5.70
2018-07-09T17:09:05.570Z,4.60
2018-07-09T17:10:05.444Z,5.80
2018-07-09T17:11:58.138Z,4.70
2018-07-09T17:12:58.033Z,5.60
2018-07-09T17:14:50.749Z,6.90
2018-07-09T17:15:50.631Z,7.10
2018-07-09T17:17:43.322Z,5.70
2018-07-09T17:18:43.221Z,8.00
2018-07-09T17:20:35.932Z,6.50
2018-07-09T17:21:35.813Z,6.10
2018-07-09T17:23:28.502Z,6.20
2018-07-09T17:24:28.401Z,6.50
2018-07-09T17:26:21.173Z,5.00
2018-07-09T17:27:21.064Z,4.60
2018-07-09T17:29:13.687Z,6.20
2018-07-09T17:30:13.593Z,4.70
2018-07-09T17:32:06.338Z,4.60
2018-07-09T17:33:06.177Z,5.50
2018-07-09T17:34:58.921Z,5.00
2018-07-09T17:35:58.765Z,3.80
2018-07-09T17:37:51.487Z,5.10
2018-07-09T17:38:51.429Z,5.10
2018-07-09T17:40:44.053Z,4.60
2018-07-09T17:41:43.952Z,4.50
2018-07-09T17:43:36.677Z,6.40
2018-07-09T17:44:36.543Z,5.70
2018-07-09T17:46:29.230Z,5.70
2018-07-09T17:47:29.126Z,4.40
2018-07-09T17:49:21.837Z,4.20
2018-07-09T17:50:21.720Z,4.80
2018-07-09T17:52:14.404Z,4.50
2018-07-09T17:53:14.315Z,4.20
2018-07-09T17:55:07.026Z,4.20
2018-07-09T17:56:06.896Z,5.00
2018-07-09T17:57:59.583Z,3.90
2018-07-09T17:58:59.483Z,4.30
2018-07-09T18:00:52.340Z,3.60
2018-07-09T18:01:52.085Z,3.60
2018-07-09T18:03:44.784Z,5.00
2018-07-09T18:04:44.686Z,5.00
2018-07-09T18:06:37.389Z,4.10
2018-07-09T18:07:37.271Z,3.60
2018-07-09T18:09:29.964Z,1.90
2018-07-09T18:10:29.907Z,3.20
2018-07-09T18:12:22.578Z,3.70
2018-07-09T18:13:22.450Z,2.90
2018-07-09T18:15:15.133Z,3.30
2018-07-09T18:16:15.030Z,2.70
2018-07-09T18:18:07.735Z,2.60
2018-07-09T18:19:07.622Z,3.00
2018-07-09T18:21:00.294Z,3.90
2018-07-09T18:22:00.199Z,4.10
2018-07-09T18:23:52.908Z,4.30
2018-07-09T18:24:52.795Z,4.00
2018-07-09T18:26:45.474Z,3.40
2018-07-09T18:27:45.374Z,2.80
2018-07-09T18:29:38.093Z,3.20
2018-07-09T18:30:37.959Z,4.00
2018-07-09T18:32:30.691Z,4.30
2018-07-09T18:33:30.542Z,5.10
2018-07-09T18:35:23.290Z,3.70
2018-07-09T18:36:23.125Z,4.80
2018-07-09T18:38:15.815Z,3.60
2018-07-09T18:39:15.712Z,4.10
2018-07-09T18:41:08.416Z,3.70
2018-07-09T18:42:08.397Z,5.10
2018-07-09T18:44:00.975Z,3.90
2018-07-09T18:45:01.046Z,4.80
2018-07-09T18:46:53.580Z,5.00
2018-07-09T18:47:53.477Z,6.60
2018-07-09T18:49:46.149Z,4.90
2018-07-09T18:50:46.037Z,4.70
2018-07-09T18:52:38.739Z,4.40
2018-07-09T18:53:38.621Z,5.50
2018-07-09T18:55:31.308Z,4.30
2018-07-09T18:56:31.204Z,5.50
2018-07-09T18:58:23.979Z,5.30
2018-07-09T18:59:23.815Z,5.30
2018-07-09T19:01:16.488Z,6.10
2018-07-09T19:02:16.387Z,6.10
2018-07-09T19:04:09.088Z,6.00
2018-07-09T19:05:08.985Z,7.50
2018-07-09T19:07:01.656Z,4.30
2018-07-09T19:08:01.578Z,5.10
2018-07-09T19:09:54.257Z,4.90
2018-07-09T19:10:54.140Z,5.00
2018-07-09T19:12:46.831Z,6.10
2018-07-09T19:13:46.725Z,6.70
2018-07-09T19:15:39.488Z,6.70
2018-07-09T19:16:39.316Z,5.80
2018-07-09T19:18:32.006Z,5.10
2018-07-09T19:19:31.902Z,6.70
2018-07-09T19:21:24.695Z,5.90
2018-07-09T19:22:24.517Z,5.20
2018-07-09T19:24:17.209Z,8.20
2018-07-09T19:25:17.081Z,4.50
2018-07-09T19:27:09.848Z,5.70
2018-07-09T19:28:09.718Z,5.10
2018-07-09T19:30:02.347Z,5.40
2018-07-09T19:31:02.261Z,6.70
2018-07-09T19:32:54.962Z,4.80
2018-07-09T19:33:54.871Z,5.00
2018-07-09T19:35:47.517Z,5.40
2018-07-09T19:36:47.501Z,5.20
2018-07-09T19:38:40.127Z,5.70
2018-07-09T19:39:40.009Z,6.40
2018-07-09T19:41:32.701Z,6.40
2018-07-09T19:42:32.591Z,8.00
2018-07-09T19:44:25.294Z,5.80
2018-07-09T19:45:25.170Z,7.50
2018-07-09T19:47:17.851Z,7.30
2018-07-09T19:48:17.753Z,5.40
2018-07-09T19:50:10.461Z,4.50
2018-07-09T19:51:10.328Z,7.40
2018-07-09T19:53:03.017Z,6.00
2018-07-09T19:54:02.916Z,5.80
2018-07-09T19:55:55.630Z,6.40
2018-07-09T19:56:55.513Z,5.40
2018-07-09T19:58:48.195Z,8.20
2018-07-09T19:59:48.089Z,6.40
2018-07-09T20:01:40.997Z,8.70
2018-07-09T20:02:40.856Z,6.20
2018-07-09T20:04:33.687Z,7.30
2018-07-09T20:05:33.546Z,5.90
2018-07-09T20:07:26.148Z,5.20
2018-07-09T20:08:26.016Z,5.60
2018-07-09T20:10:18.707Z,7.60
2018-07-09T20:11:18.604Z,7.60
2018-07-09T20:13:11.314Z,6.50
2018-07-09T20:14:11.435Z,5.50
2018-07-09T20:16:03.878Z,4.80
2018-07-09T20:17:03.769Z,5.20
2018-07-09T20:18:56.554Z,6.20
2018-07-09T20:19:56.429Z,8.10
2018-07-09T20:21:49.271Z,6.90
2018-07-09T20:22:49.017Z,5.80
2018-07-09T20:24:41.727Z,5.80
2018-07-09T20:25:41.605Z,7.70
2018-07-09T20:27:34.285Z,5.60
2018-07-09T20:28:34.180Z,6.20
2018-07-09T20:30:26.890Z,6.20
2018-07-09T20:31:26.762Z,3.40
2018-07-09T20:33:19.450Z,3.80
2018-07-09T20:34:19.347Z,7.30
2018-07-09T20:36:12.062Z,5.60
2018-07-09T20:37:11.930Z,6.80
2018-07-09T20:39:04.616Z,5.20
2018-07-09T20:40:04.546Z,4.00
2018-07-09T20:41:57.358Z,4.40
2018-07-09T20:42:57.098Z,3.90
2018-07-09T20:44:49.781Z,6.20
2018-07-09T20:45:49.739Z,4.60
2018-07-09T20:47:42.383Z,4.40
2018-07-09T20:48:42.279Z,5.20
2018-07-09T20:50:34.955Z,4.70
2018-07-09T20:51:34.856Z,4.20
2018-07-09T20:53:27.619Z,3.70
2018-07-09T20:54:27.505Z,5.10
2018-07-09T20:56:20.188Z,4.80
2018-07-09T20:57:20.091Z,7.30
2018-07-09T20:59:12.792Z,3.90
2018-07-09T21:00:12.667Z,5.40
2018-07-09T21:02:05.348Z,6.00
2018-07-09T21:03:05.247Z,5.90
2018-07-09T21:04:57.950Z,5.20
2018-07-09T21:05:57.832Z,5.10
2018-07-09T21:07:50.536Z,6.90
2018-07-09T21:08:50.406Z,6.50
2018-07-09T21:10:43.088Z,4.60
2018-07-09T21:11:42.984Z,6.30
2018-07-09T21:13:35.708Z,5.20
2018-07-09T21:14:35.563Z,4.90
2018-07-09T21:16:28.403Z,5.60
2018-07-09T21:17:28.148Z,5.90
2018-07-09T21:19:20.843Z,4.30
2018-07-09T21:20:20.725Z,5.50
2018-07-09T21:22:13.431Z,5.30
2018-07-09T21:23:13.317Z,5.80
2018-07-09T21:25:06.013Z,6.70
2018-07-09T21:26:05.890Z,6.10
2018-07-09T21:27:58.570Z,4.50
2018-07-09T21:28:58.475Z,4.00
2018-07-09T21:30:51.181Z,7.30
2018-07-09T21:31:51.054Z,6.60
2018-07-09T21:33:43.730Z,3.90
2018-07-09T21:34:43.633Z,4.60
2018-07-09T21:36:36.342Z,6.70
2018-07-09T21:37:36.330Z,5.80
2018-07-09T21:39:28.888Z,6.00
2018-07-09T21:40:28.794Z,4.50
2018-07-09T21:42:21.487Z,4.80
2018-07-09T21:43:21.362Z,5.40
2018-07-09T21:45:14.048Z,5.80
2018-07-09T21:46:13.949Z,6.10
2018-07-09T21:48:10.554Z,5.00
2018-07-09T21:49:06.526Z,5.80
2018-07-09T21:50:59.204Z,6.30
2018-07-09T21:51:59.100Z,4.40
2018-07-09T21:53:51.824Z,5.10
2018-07-09T21:54:51.710Z,4.80
2018-07-09T21:56:44.366Z,5.40
2018-07-09T21:57:44.262Z,6.30
2018-07-09T21:59:36.966Z,7.20
